Time;durP1;ratioP1;P1;durP2;ratioP2;P2;SDS_P1;SDS_P2;PMS_P1;PMS_P2;Temp;Humidity;BMP_temperature;BMP_pressure;BME280_temperature;BME280_humidity;BME280_pressure;Samples;Min_cycle;Max_cycle;Signal;HPM_P1;HPM_P2
2022/02/16 00:00:30;;;;;;;3.53;0.82;;;;;;;26.23;28.67;96285.19;5000916;28;20079;-31
2022/02/16 00:02:56;;;;;;;1.67;0.90;;;;;;;26.23;28.79;96280.81;5005644;28;20026;-32
2022/02/16 00:05:21;;;;;;;1.77;1.00;;;;;;;26.23;28.72;96283.44;4999335;28;20673;-31
2022/02/16 00:07:48;;;;;;;1.10;0.65;;;;;;;26.23;28.59;96290.44;4995767;28;20038;-33
2022/02/16 00:10:14;;;;;;;1.35;0.80;;;;;;;26.23;28.70;96287.81;4992563;28;20120;-32
2022/02/16 00:12:39;;;;;;;1.77;1.00;;;;;;;26.22;28.69;96283.53;4994440;28;20021;-29
2022/02/16 00:15:05;;;;;;;0.85;0.75;;;;;;;26.22;28.73;96279.13;5001974;28;20758;-31
2022/02/16 00:17:31;;;;;;;2.83;0.80;;;;;;;26.23;28.66;96279.94;5002924;28;20033;-31
2022/02/16 00:19:56;;;;;;;1.15;0.70;;;;;;;26.22;28.55;96278.25;4995637;28;20389;-31
2022/02/16 00:22:22;;;;;;;1.00;0.77;;;;;;;26.21;28.56;96276.59;4996338;28;20044;-31
2022/02/16 00:24:47;;;;;;;2.03;1.25;;;;;;;26.22;28.80;96278.25;4997961;28;20024;-30
2022/02/16 00:27:12;;;;;;;1.63;0.90;;;;;;;26.22;28.54;96278.25;4997397;28;20632;-33
2022/02/16 00:29:38;;;;;;;1.92;1.00;;;;;;;26.22;28.51;96267.75;4998388;28;20072;-30
2022/02/16 00:32:03;;;;;;;2.38;1.00;;;;;;;26.22;28.70;96267.75;5001739;28;20941;-31
2022/02/16 00:34:29;;;;;;;1.60;0.80;;;;;;;26.21;28.70;96263.47;4998392;28;20044;-31
2022/02/16 00:36:56;;;;;;;2.58;0.50;;;;;;;26.21;28.72;96260.81;4995423;28;20017;-30
2022/02/16 00:39:21;;;;;;;1.80;1.00;;;;;;;26.21;28.72;96266.09;5000456;28;20033;-31
2022/02/16 00:41:47;;;;;;;1.05;0.70;;;;;;;26.21;28.65;96266.91;5001619;28;20037;-31
2022/02/16 00:44:12;;;;;;;1.33;0.93;;;;;;;26.20;28.73;96262.59;4998954;28;20037;-31
2022/02/16 00:46:38;;;;;;;0.90;0.60;;;;;;;26.21;28.77;96266.09;4995200;28;20034;-31
2022/02/16 00:49:03;;;;;;;1.15;0.70;;;;;;;26.21;28.66;96260.81;4998012;28;20041;-33
2022/02/16 00:51:28;;;;;;;1.98;0.70;;;;;;;26.20;28.68;96261.78;4998077;28;20536;-31
2022/02/16 00:53:54;;;;;;;3.63;0.68;;;;;;;26.20;28.82;96270.47;5002737;28;20033;-29
2022/02/16 00:56:19;;;;;;;1.85;0.90;;;;;;;26.20;28.71;96261.78;5005680;28;20060;-30
2022/02/16 00:58:45;;;;;;;1.70;0.73;;;;;;;26.21;28.54;96260.81;5004602;28;20041;-29
2022/02/16 01:01:10;;;;;;;1.50;0.77;;;;;;;26.19;28.62;96257.44;5003423;28;20029;-30
2022/02/16 01:03:37;;;;;;;1.58;0.82;;;;;;;26.20;28.59;96256.53;5004405;28;20022;-31
2022/02/16 01:06:03;;;;;;;1.30;0.70;;;;;;;26.19;28.59;96241.69;5001649;28;20237;-32
2022/02/16 01:08:29;;;;;;;0.95;0.60;;;;;;;26.19;28.78;96236.44;5011798;28;20064;-30
2022/02/16 01:10:54;;;;;;;1.73;0.73;;;;;;;26.19;28.67;96239.91;5013516;28;20018;-31
2022/02/16 01:13:20;;;;;;;1.67;0.73;;;;;;;26.19;28.62;96241.69;5013880;28;20037;-32
2022/02/16 01:15:45;;;;;;;0.98;0.50;;;;;;;26.20;28.70;96238.13;5013583;28;20040;-29
2022/02/16 01:18:10;;;;;;;0.80;0.57;;;;;;;26.19;28.59;96234.66;5013566;28;20039;-30
2022/02/16 01:20:36;;;;;;;1.15;0.70;;;;;;;26.19;28.57;96231.19;5014623;28;20726;-31
2022/02/16 01:23:02;;;;;;;0.95;0.75;;;;;;;26.18;28.57;96229.50;5014918;28;20049;-31
2022/02/16 01:25:27;;;;;;;1.60;0.93;;;;;;;26.17;28.67;96228.69;5012520;28;20041;-29
2022/02/16 01:27:52;;;;;;;0.98;0.52;;;;;;;26.17;28.57;96223.41;5012651;28;20026;-32
2022/02/16 01:30:18;;;;;;;0.80;0.57;;;;;;;26.18;28.67;96216.38;5011449;28;20043;-30
2022/02/16 01:32:43;;;;;;;1.05;0.50;;;;;;;26.16;28.71;96208.59;5014439;28;20040;-31
2022/02/16 01:35:09;;;;;;;1.30;0.60;;;;;;;26.16;28.57;96216.47;5010412;28;20029;-34
2022/02/16 01:37:34;;;;;;;0.82;0.50;;;;;;;26.16;28.70;96207.75;5014370;28;20628;-30
2022/02/16 01:40:00;;;;;;;1.13;0.52;;;;;;;26.16;28.62;96205.97;5006336;28;20026;-31
2022/02/16 01:42:25;;;;;;;1.52;0.68;;;;;;;26.17;28.67;96201.56;5007090;28;20045;-30
2022/02/16 01:44:50;;;;;;;1.52;0.80;;;;;;;26.16;28.55;96200.69;5003632;28;20033;-34
2022/02/16 01:47:16;;;;;;;0.90;0.70;;;;;;;26.16;28.60;96203.34;5006720;28;20025;-30
2022/02/16 01:49:41;;;;;;;1.05;0.60;;;;;;;26.15;28.57;96193.78;5003516;28;20053;-33
2022/02/16 01:52:07;;;;;;;1.08;0.60;;;;;;;26.16;28.61;96189.38;5004700;28;20041;-33
2022/02/16 01:54:33;;;;;;;1.45;0.68;;;;;;;26.15;28.71;96185.03;5005850;28;20099;-30
2022/02/16 01:56:58;;;;;;;1.65;0.50;;;;;;;26.15;28.58;96175.41;5008353;28;20026;-35
2022/02/16 01:59:24;;;;;;;1.05;0.43;;;;;;;26.13;28.68;96169.41;5008420;28;20839;-31
2022/02/16 02:01:50;;;;;;;1.25;0.57;;;;;;;26.14;28.71;96171.09;4987963;28;20038;-30
2022/02/16 02:04:17;;;;;;;2.28;0.50;;;;;;;26.14;28.67;96159.72;5008818;28;20140;-30
2022/02/16 02:06:42;;;;;;;0.85;0.50;;;;;;;26.15;28.59;96156.16;5007988;28;20079;-29
2022/02/16 02:09:08;;;;;;;1.13;0.70;;;;;;;26.14;28.69;96149.22;5003760;28;20055;-31
2022/02/16 02:11:33;;;;;;;1.85;0.70;;;;;;;26.14;28.61;96155.34;5006638;28;20021;-30
2022/02/16 02:14:01;;;;;;;1.35;0.60;;;;;;;26.14;28.61;96149.22;5007650;28;20092;-33
2022/02/16 02:16:26;;;;;;;0.82;0.50;;;;;;;26.13;28.55;96143.16;5005056;28;20041;-31
2022/02/16 02:18:52;;;;;;;0.90;0.68;;;;;;;26.13;28.50;96142.31;5003602;28;20032;-30
2022/02/16 02:21:18;;;;;;;1.52;0.70;;;;;;;26.13;28.60;96134.41;5006693;28;20036;-31
2022/02/16 02:23:44;;;;;;;2.33;0.60;;;;;;;26.13;28.65;96131.78;5006465;28;20428;-30
2022/02/16 02:26:11;;;;;;;0.52;0.50;;;;;;;26.12;28.61;96125.69;5004302;28;20033;-30
2022/02/16 02:28:36;;;;;;;0.52;0.50;;;;;;;26.12;28.54;96120.44;5005063;28;20096;-31
2022/02/16 02:31:02;;;;;;;0.90;0.50;;;;;;;26.13;28.70;96121.28;5006406;28;20941;-33
2022/02/16 02:33:27;;;;;;;1.23;0.63;;;;;;;26.13;28.32;96113.41;5005715;28;20313;-31
2022/02/16 02:35:53;;;;;;;0.50;0.40;;;;;;;26.10;28.67;96117.91;5003653;28;22302;-32
2022/02/16 02:38:18;;;;;;;0.68;0.43;;;;;;;26.12;28.57;96115.19;5005400;28;20030;-31
2022/02/16 02:40:43;;;;;;;1.45;0.68;;;;;;;26.12;28.54;96109.13;5004657;28;20050;-31
2022/02/16 02:43:09;;;;;;;0.68;0.35;;;;;;;26.12;28.54;96109.13;5005817;28;20728;-33
2022/02/16 02:45:34;;;;;;;1.40;0.70;;;;;;;26.12;28.44;96103.88;5007351;28;20037;-31
2022/02/16 02:48:00;;;;;;;0.80;0.50;;;;;;;26.13;28.65;96089.78;5005491;28;20022;-31
2022/02/16 02:50:25;;;;;;;0.75;0.55;;;;;;;26.11;28.57;96089.88;5005334;28;20551;-33
2022/02/16 02:52:50;;;;;;;0.82;0.57;;;;;;;26.10;28.67;96089.03;5006597;28;20044;-31
2022/02/16 02:55:16;;;;;;;0.70;0.50;;;;;;;26.09;28.53;96084.72;5005606;28;20027;-33
2022/02/16 02:57:41;;;;;;;1.55;0.65;;;;;;;26.10;28.62;96070.66;5002967;28;20626;-30
2022/02/16 03:00:08;;;;;;;1.35;0.50;;;;;;;26.10;28.59;96062.78;5006838;28;21316;-35
2022/02/16 03:02:34;;;;;;;1.92;0.85;;;;;;;26.10;28.55;96054.88;4991878;28;20013;-30
2022/02/16 03:05:01;;;;;;;4.50;0.65;;;;;;;26.09;28.61;96053.22;5007550;28;20522;-30
2022/02/16 03:07:26;;;;;;;0.77;0.50;;;;;;;26.09;28.46;96047.97;5004827;28;20053;-30
2022/02/16 03:09:52;;;;;;;1.23;0.50;;;;;;;26.08;28.67;96043.66;5003168;28;20029;-29
2022/02/16 03:12:17;;;;;;;0.65;0.40;;;;;;;26.07;28.65;96039.34;5005144;28;20071;-30
2022/02/16 03:14:43;;;;;;;1.17;0.60;;;;;;;26.07;28.48;96036.72;5004291;28;20030;-32
2022/02/16 03:17:08;;;;;;;1.48;0.63;;;;;;;26.07;28.76;96033.25;5004122;28;20033;-31
2022/02/16 03:19:34;;;;;;;1.17;0.50;;;;;;;26.08;28.65;96041.03;5005200;28;20037;-31
2022/02/16 03:21:59;;;;;;;1.85;0.70;;;;;;;26.08;28.63;96034.94;5004475;28;20464;-31
2022/02/16 03:24:24;;;;;;;2.67;0.60;;;;;;;26.07;28.58;96039.34;5004983;28;20033;-33
2022/02/16 03:26:50;;;;;;;0.80;0.60;;;;;;;26.08;28.34;96034.94;5005995;28;20040;-31
2022/02/16 03:29:15;;;;;;;0.88;0.50;;;;;;;26.07;28.57;96028.84;5008112;28;20412;-30
2022/02/16 03:31:42;;;;;;;0.98;0.55;;;;;;;26.07;28.49;96022.75;5012979;28;20026;-32
2022/02/16 03:34:08;;;;;;;1.00;0.50;;;;;;;26.06;28.48;96016.69;5012529;28;20037;-31
2022/02/16 03:36:33;;;;;;;1.48;0.45;;;;;;;26.07;28.46;96014.88;5006539;28;20061;-31
2022/02/16 03:38:58;;;;;;;0.93;0.40;;;;;;;26.06;28.55;96016.69;5005721;28;20029;-34
2022/02/16 03:41:24;;;;;;;0.45;0.40;;;;;;;26.06;28.49;96008.81;5003340;28;20722;-29
2022/02/16 03:43:49;;;;;;;0.95;0.50;;;;;;;26.06;28.47;96014.06;5003343;28;20415;-28
2022/02/16 03:46:15;;;;;;;1.63;0.60;;;;;;;26.06;28.57;96011.44;5004341;28;20038;-31
2022/02/16 03:48:40;;;;;;;0.80;0.52;;;;;;;26.06;28.58;96011.44;5003414;28;20041;-30
2022/02/16 03:51:05;;;;;;;0.70;0.40;;;;;;;26.06;28.49;96016.69;5005249;28;20076;-30
2022/02/16 03:53:31;;;;;;;1.15;0.45;;;;;;;26.05;28.53;96009.72;5004255;28;20103;-33
2022/02/16 03:55:57;;;;;;;1.05;0.55;;;;;;;26.06;28.49;96005.31;5004324;28;20491;-31
2022/02/16 03:58:22;;;;;;;0.88;0.47;;;;;;;26.05;28.49;96009.72;5004084;28;20099;-30
2022/02/16 04:00:47;;;;;;;0.80;0.50;;;;;;;26.05;28.43;96006.28;5005660;28;20040;-31
2022/02/16 04:03:13;;;;;;;0.70;0.40;;;;;;;26.06;28.41;96000.06;5005009;28;20577;-30
2022/02/16 04:05:40;;;;;;;0.35;0.35;;;;;;;26.05;28.51;96004.47;5009229;28;20383;-32
2022/02/16 04:08:06;;;;;;;1.02;0.40;;;;;;;26.05;28.50;96004.47;5004490;28;20033;-33
2022/02/16 04:10:31;;;;;;;0.73;0.40;;;;;;;26.05;28.55;95999.22;5004067;28;20021;-30
2022/02/16 04:12:57;;;;;;;1.35;0.57;;;;;;;26.04;28.58;95997.53;5004395;28;20590;-31
2022/02/16 04:15:22;;;;;;;1.17;0.40;;;;;;;26.04;28.61;95991.44;5004734;28;20025;-32
2022/02/16 04:17:47;;;;;;;0.90;0.40;;;;;;;26.01;28.41;95982.00;5003132;28;20538;-32
2022/02/16 04:20:13;;;;;;;0.77;0.50;;;;;;;26.03;28.44;95985.38;5002465;28;20037;-32
2022/02/16 04:22:42;;;;;;;0.60;0.30;;;;;;;26.04;28.38;95988.81;5004202;28;20029;-32
2022/02/16 04:25:08;;;;;;;0.70;0.40;;;;;;;26.04;28.46;95991.44;5005672;28;20121;-36
2022/02/16 04:27:33;;;;;;;0.55;0.50;;;;;;;26.04;28.49;95986.19;5008424;28;20024;-32
2022/02/16 04:29:58;;;;;;;0.73;0.45;;;;;;;26.04;28.51;95986.19;5005428;28;20033;-30
2022/02/16 04:32:24;;;;;;;0.75;0.30;;;;;;;26.03;28.37;95985.38;5002001;28;20029;-31
2022/02/16 04:34:49;;;;;;;0.73;0.52;;;;;;;26.03;28.40;95982.75;5004181;28;20554;-30
2022/02/16 04:37:15;;;;;;;0.52;0.30;;;;;;;26.03;28.43;95980.13;5002101;28;20026;-31
2022/02/16 04:39:40;;;;;;;0.45;0.38;;;;;;;26.03;28.40;95982.75;5003987;28;20029;-30
2022/02/16 04:42:05;;;;;;;1.00;0.40;;;;;;;26.03;28.51;95971.38;5006781;28;20038;-33
2022/02/16 04:44:31;;;;;;;0.50;0.50;;;;;;;26.03;28.48;95969.63;5005828;28;20060;-32
2022/02/16 04:46:56;;;;;;;1.58;0.50;;;;;;;26.02;28.37;95967.94;4987825;28;20022;-31
2022/02/16 04:49:22;;;;;;;0.57;0.32;;;;;;;26.02;28.47;95973.19;5005655;28;20044;-32
2022/02/16 04:51:47;;;;;;;0.82;0.50;;;;;;;26.02;28.55;95970.56;5007751;28;20025;-32
2022/02/16 04:54:12;;;;;;;1.48;0.25;;;;;;;26.00;28.51;95964.56;5007886;28;20068;-31
2022/02/16 04:56:38;;;;;;;0.28;0.28;;;;;;;25.98;28.54;95953.34;5006138;28;20419;-31
2022/02/16 04:59:03;;;;;;;0.40;0.30;;;;;;;26.01;28.50;95955.75;5010608;28;20033;-31
2022/02/16 05:01:29;;;;;;;0.90;0.57;;;;;;;26.01;28.37;95955.75;5016999;28;20037;-32
2022/02/16 05:03:54;;;;;;;1.27;0.50;;;;;;;26.01;28.37;95953.13;5011467;28;20029;-32
2022/02/16 05:06:20;;;;;;;1.55;0.43;;;;;;;26.01;28.48;95949.66;5015569;28;20419;-31
2022/02/16 05:08:45;;;;;;;0.45;0.30;;;;;;;26.01;28.37;95940.00;5017092;28;20041;-34
2022/02/16 05:11:10;;;;;;;0.30;0.30;;;;;;;26.00;28.40;95943.56;5015017;28;20427;-32
2022/02/16 05:13:36;;;;;;;0.30;0.30;;;;;;;26.01;28.36;95929.47;5015896;28;20033;-30
2022/02/16 05:16:01;;;;;;;0.82;0.35;;;;;;;26.00;28.49;95942.75;5014501;28;20037;-31
2022/02/16 05:18:27;;;;;;;0.73;0.40;;;;;;;25.99;28.40;95936.63;5014708;28;20587;-32
2022/02/16 05:20:52;;;;;;;0.35;0.25;;;;;;;26.00;28.40;95932.25;5001477;28;20038;-34
2022/02/16 05:23:18;;;;;;;0.45;0.40;;;;;;;25.99;28.51;95926.13;5013837;28;20022;-34
2022/02/16 05:25:43;;;;;;;0.50;0.30;;;;;;;26.00;28.45;95911.25;5013786;28;20025;-31
2022/02/16 05:28:08;;;;;;;1.50;0.35;;;;;;;25.99;28.36;95905.13;5014811;28;20140;-33
2022/02/16 05:30:34;;;;;;;0.20;0.20;;;;;;;25.99;28.36;95910.38;5013883;28;20025;-30
2022/02/16 05:33:01;;;;;;;0.47;0.20;;;;;;;25.97;28.53;95907.00;5011055;28;20036;-30
2022/02/16 05:35:26;;;;;;;0.40;0.40;;;;;;;25.98;28.33;95900.84;5006444;28;20037;-32
2022/02/16 05:37:52;;;;;;;1.30;0.47;;;;;;;25.98;28.43;95892.09;5006790;28;21252;-30
2022/02/16 05:40:17;;;;;;;1.08;0.30;;;;;;;25.97;28.49;95891.25;5005925;28;20052;-35
2022/02/16 05:42:43;;;;;;;0.63;0.30;;;;;;;25.97;28.39;95886.00;5006045;28;20036;-31
2022/02/16 05:45:08;;;;;;;1.85;0.40;;;;;;;25.98;28.30;95885.09;5007564;28;20238;-31
2022/02/16 05:47:34;;;;;;;1.38;0.40;;;;;;;25.96;28.52;95881.72;5006011;28;20030;-34
2022/02/16 05:49:59;;;;;;;1.25;0.40;;;;;;;25.96;28.37;95879.09;5006487;28;20032;-32
2022/02/16 05:52:25;;;;;;;0.35;0.30;;;;;;;25.96;28.53;95886.97;5006041;28;20036;-33
2022/02/16 05:54:50;;;;;;;0.57;0.30;;;;;;;25.97;28.34;95886.00;5007581;28;20585;-32
2022/02/16 05:57:15;;;;;;;0.45;0.30;;;;;;;25.96;28.31;95881.72;5006751;28;20033;-32
2022/02/16 05:59:41;;;;;;;0.25;0.25;;;;;;;25.97;28.45;95880.75;5005131;28;20025;-31
2022/02/16 06:02:06;;;;;;;0.68;0.20;;;;;;;25.95;28.39;95883.50;5004526;28;20045;-31
2022/02/16 06:04:35;;;;;;;0.73;0.40;;;;;;;25.95;28.44;95869.53;5007116;28;20075;-33
2022/02/16 06:07:00;;;;;;;0.20;0.20;;;;;;;25.96;28.44;95868.59;5001103;28;20036;-34
2022/02/16 06:09:26;;;;;;;0.38;0.30;;;;;;;25.96;28.51;95868.59;5007915;28;20026;-31
2022/02/16 06:11:52;;;;;;;0.95;0.20;;;;;;;25.96;28.39;95864.19;5007780;28;20674;-30
2022/02/16 06:14:17;;;;;;;0.68;0.40;;;;;;;25.95;28.43;95853.78;5007647;28;20037;-32
2022/02/16 06:16:43;;;;;;;0.30;0.30;;;;;;;25.95;28.36;95846.75;5003962;28;20056;-32
2022/02/16 06:19:08;;;;;;;0.20;0.20;;;;;;;25.95;28.43;95852.00;5005723;28;20029;-30
2022/02/16 06:21:33;;;;;;;0.40;0.38;;;;;;;25.95;28.41;95845.91;5006144;28;20049;-30
2022/02/16 06:23:59;;;;;;;0.70;0.35;;;;;;;25.95;28.45;95845.91;5006093;28;20044;-31
2022/02/16 06:26:24;;;;;;;0.47;0.30;;;;;;;25.95;28.55;95843.28;5003891;28;20385;-32
2022/02/16 06:28:50;;;;;;;0.88;0.40;;;;;;;25.95;28.40;95851.16;5007202;28;20029;-33
2022/02/16 06:31:15;;;;;;;0.22;0.20;;;;;;;25.94;28.37;95845.06;5005580;28;20036;-30
2022/02/16 06:33:41;;;;;;;0.38;0.35;;;;;;;25.94;28.23;95849.50;5004326;28;20030;-32
2022/02/16 06:36:06;;;;;;;1.17;0.57;;;;;;;25.96;28.48;95842.34;5002799;28;20480;-30
2022/02/16 06:38:31;;;;;;;0.20;0.20;;;;;;;25.94;28.29;95839.81;5006052;28;20102;-30
2022/02/16 06:40:57;;;;;;;0.40;0.20;;;;;;;25.96;28.46;95837.09;5004798;28;22060;-31
2022/02/16 06:43:22;;;;;;;1.33;0.30;;;;;;;25.95;28.35;95848.53;5005623;28;20017;-33
2022/02/16 06:45:48;;;;;;;0.30;0.30;;;;;;;25.95;28.39;95840.66;5003078;28;20449;-30
2022/02/16 06:48:13;;;;;;;0.30;0.30;;;;;;;25.96;28.36;95851.06;5005083;28;20025;-30
2022/02/16 06:50:39;;;;;;;0.55;0.20;;;;;;;25.93;28.35;95839.94;5004612;28;21042;-33
2022/02/16 06:53:04;;;;;;;0.40;0.22;;;;;;;25.94;28.42;95839.00;5004397;28;20500;-31
2022/02/16 06:55:30;;;;;;;0.40;0.30;;;;;;;25.96;28.38;95837.94;5006054;28;20037;-33
2022/02/16 06:57:57;;;;;;;0.30;0.30;;;;;;;25.97;28.45;95836.13;5003860;28;20029;-30
2022/02/16 07:00:22;;;;;;;0.45;0.30;;;;;;;25.97;28.30;95838.75;5003203;28;20036;-31
2022/02/16 07:02:48;;;;;;;0.20;0.20;;;;;;;25.98;28.47;95837.84;5004854;28;20025;-32
2022/02/16 07:05:14;;;;;;;3.28;0.50;;;;;;;25.98;28.53;95844.84;5008317;28;20040;-30
2022/02/16 07:07:40;;;;;;;1.48;0.47;;;;;;;25.96;28.50;95842.34;5003440;28;20026;-31
2022/02/16 07:10:06;;;;;;;0.43;0.30;;;;;;;25.97;28.62;95833.50;5005630;28;20297;-30
2022/02/16 07:12:32;;;;;;;0.30;0.30;;;;;;;25.97;28.52;95844.00;5004028;28;20041;-30
2022/02/16 07:14:57;;;;;;;0.77;0.40;;;;;;;25.97;28.60;95849.25;5005954;28;20040;-31
2022/02/16 07:17:23;;;;;;;1.25;0.50;;;;;;;25.97;28.51;95846.63;5000796;28;20032;-30
2022/02/16 07:19:49;;;;;;;0.30;0.30;;;;;;;25.96;28.56;95843.19;5002471;28;20025;-32
2022/02/16 07:22:14;;;;;;;0.43;0.30;;;;;;;25.96;28.36;95839.72;5002273;28;20547;-32
2022/02/16 07:24:40;;;;;;;5.68;0.40;;;;;;;25.98;28.62;95840.47;5004463;28;20057;-31
2022/02/16 07:27:05;;;;;;;6.28;0.52;;;;;;;25.99;28.52;95836.88;5004328;28;20088;-33
2022/02/16 07:29:30;;;;;;;2.53;0.40;;;;;;;25.97;28.42;95828.25;5008417;28;20442;-32
2022/02/16 07:31:56;;;;;;;5.00;0.32;;;;;;;25.98;28.59;95824.72;5007576;28;20076;-31
2022/02/16 07:34:24;;;;;;;1.13;0.40;;;;;;;25.98;28.49;95816.84;5007016;28;20026;-32
2022/02/16 07:36:50;;;;;;;4.57;0.45;;;;;;;25.99;28.52;95821.13;5004937;28;20071;-34
2022/02/16 07:39:15;;;;;;;4.95;0.40;;;;;;;25.99;28.44;95815.88;5002343;28;20535;-36
2022/02/16 07:41:40;;;;;;;1.30;0.52;;;;;;;26.00;28.47;95816.72;5004637;28;20663;-32
2022/02/16 07:44:06;;;;;;;2.08;0.50;;;;;;;26.01;28.58;95810.53;4999951;28;20034;-35
2022/02/16 07:46:31;;;;;;;2.67;0.50;;;;;;;26.01;28.66;95813.97;5001262;28;20102;-33
2022/02/16 07:48:57;;;;;;;0.93;0.40;;;;;;;26.01;28.46;95808.72;5003543;28;20038;-35
2022/02/16 07:51:23;;;;;;;3.55;0.40;;;;;;;26.01;28.58;95808.72;5002892;28;20020;-36
2022/02/16 07:53:49;;;;;;;1.48;0.40;;;;;;;26.02;28.48;95804.31;5004520;28;20387;-31
2022/02/16 07:56:15;;;;;;;1.55;0.40;;;;;;;26.02;28.55;95804.31;5002957;28;20403;-31
2022/02/16 07:58:40;;;;;;;3.70;0.40;;;;;;;26.02;28.39;95802.56;5005884;28;20026;-31
2022/02/16 08:01:05;;;;;;;0.70;0.43;;;;;;;26.03;28.56;95801.59;5013598;28;20034;-33
2022/02/16 08:03:31;;;;;;;1.42;0.60;;;;;;;26.03;28.40;95793.72;5012040;28;20033;-35
2022/02/16 08:05:56;;;;;;;2.33;0.40;;;;;;;26.03;28.58;95803.38;5010334;28;20792;-31
2022/02/16 08:08:22;;;;;;;2.10;0.40;;;;;;;26.04;28.44;95800.66;5011922;28;20029;-31
2022/02/16 08:10:50;;;;;;;1.02;0.60;;;;;;;26.05;28.44;95804.94;5011360;28;20034;-32
2022/02/16 08:13:16;;;;;;;1.20;0.40;;;;;;;26.05;28.39;95815.44;5010432;28;20036;-31
2022/02/16 08:15:42;;;;;;;0.75;0.30;;;;;;;26.06;28.41;95822.41;5012320;28;20194;-32
2022/02/16 08:18:07;;;;;;;0.63;0.30;;;;;;;26.07;28.45;95808.31;5011066;28;20484;-29
2022/02/16 08:20:32;;;;;;;0.80;0.40;;;;;;;26.07;28.11;95807.47;5008378;28;20403;-32
2022/02/16 08:22:58;;;;;;;2.15;0.38;;;;;;;26.06;28.12;95801.41;5011879;28;20036;-31
2022/02/16 08:25:24;;;;;;;1.83;0.30;;;;;;;26.04;28.23;95800.66;5013405;28;20029;-34
2022/02/16 08:27:53;;;;;;;1.58;0.40;;;;;;;26.06;28.29;95803.16;5013687;28;20029;-34
2022/02/16 08:30:18;;;;;;;1.00;0.30;;;;;;;26.06;28.25;95790.88;5005303;28;20041;-32
2022/02/16 08:32:45;;;;;;;1.05;0.40;;;;;;;26.06;28.35;95793.50;5002323;28;20051;-32
2022/02/16 08:35:11;;;;;;;0.60;0.60;;;;;;;26.05;28.33;95783.94;4987058;28;20030;-29
2022/02/16 08:37:37;;;;;;;1.75;0.43;;;;;;;26.06;28.43;95774.28;5002923;28;20026;-30
2022/02/16 08:40:04;;;;;;;1.75;0.40;;;;;;;26.06;28.35;95769.88;5001841;28;20447;-31
2022/02/16 08:42:29;;;;;;;1.20;0.60;;;;;;;26.06;28.31;95764.63;4987583;28;20034;-33
2022/02/16 08:44:56;;;;;;;1.38;0.20;;;;;;;26.07;28.49;95763.69;5002803;28;20032;-30
2022/02/16 08:47:22;;;;;;;2.25;0.30;;;;;;;26.07;28.38;95763.69;5002859;28;20030;-33
2022/02/16 08:49:47;;;;;;;3.63;0.40;;;;;;;26.08;28.47;95757.47;5002548;28;20043;-32
2022/02/16 08:52:13;;;;;;;0.77;0.50;;;;;;;26.08;28.47;95746.97;5000945;28;20733;-31
2022/02/16 08:54:38;;;;;;;1.23;0.50;;;;;;;26.08;28.46;95746.13;5001644;28;20563;-34
2022/02/16 08:57:04;;;;;;;2.13;0.40;;;;;;;26.08;28.48;95725.97;5003422;28;20562;-29
2022/02/16 08:59:30;;;;;;;1.05;0.40;;;;;;;26.07;28.55;95729.56;5003423;28;20037;-30
2022/02/16 09:01:56;;;;;;;1.13;0.30;;;;;;;26.08;28.44;95731.22;5002979;28;20049;-31
2022/02/16 09:04:21;;;;;;;1.08;0.50;;;;;;;26.07;28.34;95731.31;5002395;28;20554;-31
2022/02/16 09:07:27;;;;;;;1.05;0.40;;;;;;;26.08;28.37;95735.63;5001836;28;20554;-34
2022/02/16 09:09:33;;;;;;;0.77;0.40;;;;;;;26.08;28.48;95731.22;4999637;28;20788;-34
2022/02/16 09:11:59;;;;;;;0.82;0.50;;;;;;;26.09;28.59;95730.25;5001794;28;21715;-31
2022/02/16 09:14:25;;;;;;;0.85;0.30;;;;;;;26.09;28.44;95727.63;5002735;28;20047;-34
2022/02/16 09:16:50;;;;;;;2.08;0.30;;;;;;;26.09;28.35;95727.63;5001549;28;20033;-30
2022/02/16 09:19:16;;;;;;;3.45;0.70;;;;;;;26.01;26.11;95729.97;5005171;28;20076;-31
2022/02/16 09:21:41;;;;;;;1.55;0.70;;;;;;;25.87;24.45;95711.75;5002616;28;20103;-32
2022/02/16 09:24:06;;;;;;;2.03;0.80;;;;;;;25.69;24.63;95727.81;4999459;28;20052;-29
2022/02/16 09:26:33;;;;;;;2.38;0.80;;;;;;;25.55;24.87;95729.59;5007756;28;20045;-31
2022/02/16 09:28:59;;;;;;;1.80;0.80;;;;;;;25.45;25.29;95718.06;5007131;28;20146;-35
2022/02/16 09:31:24;;;;;;;4.85;0.73;;;;;;;25.40;25.40;95709.69;5015894;28;20027;-29
2022/02/16 09:33:51;;;;;;;2.60;0.82;;;;;;;25.37;25.75;95707.25;5008596;28;20025;-32
2022/02/16 09:36:16;;;;;;;0.88;0.50;;;;;;;25.36;25.87;95702.97;5005491;28;20033;-29
2022/02/16 09:38:42;;;;;;;1.33;0.70;;;;;;;25.36;26.04;95713.47;5005502;28;20068;-31
2022/02/16 09:41:08;;;;;;;1.52;0.60;;;;;;;25.37;26.27;95704.63;5005150;28;20040;-29
2022/02/16 09:43:33;;;;;;;0.40;0.40;;;;;;;25.39;26.19;95694.88;5007134;28;20037;-30
2022/02/16 09:45:58;;;;;;;3.13;0.60;;;;;;;25.41;26.41;95695.63;4987061;28;20427;-35
2022/02/16 09:48:24;;;;;;;1.08;0.47;;;;;;;25.43;26.42;95698.97;5006154;28;20026;-33
2022/02/16 09:50:50;;;;;;;1.90;0.50;;;;;;;25.46;26.47;95693.50;5012193;28;20026;-30
2022/02/16 09:53:16;;;;;;;4.25;0.70;;;;;;;25.49;26.58;95690.69;5011570;28;20105;-31
2022/02/16 09:55:41;;;;;;;1.48;0.60;;;;;;;25.51;26.63;95683.53;5012628;28;20109;-29
2022/02/16 09:58:06;;;;;;;1.45;0.68;;;;;;;25.54;26.66;95683.31;5009292;28;20282;-33
2022/02/16 10:00:32;;;;;;;6.10;1.10;;;;;;;25.56;26.74;95673.59;5005089;28;20032;-32
2022/02/16 10:02:58;;;;;;;4.88;1.00;;;;;;;25.59;26.99;95671.72;5010692;28;20407;-31
2022/02/16 10:05:26;;;;;;;4.28;1.27;;;;;;;25.61;26.80;95672.44;4979568;28;20029;-30
2022/02/16 10:07:51;;;;;;;7.68;1.23;;;;;;;25.62;26.93;95672.31;4998414;28;20833;-31
2022/02/16 10:10:21;;;;;;;3.47;0.93;;;;;;;25.64;26.83;95673.06;5015432;28;20029;-31
2022/02/16 10:12:48;;;;;;;5.70;1.30;;;;;;;25.67;27.02;95669.38;5015072;28;20056;-30
2022/02/16 10:15:30;;;;;;;6.57;1.35;;;;;;;25.67;27.10;95685.94;5013384;28;20096;-32
2022/02/16 10:18:04;;;;;;;5.03;1.27;;;;;;;25.70;26.98;95685.75;5013854;28;20030;-31
2022/02/16 10:20:30;;;;;;;4.75;1.50;;;;;;;25.72;27.12;95683.03;5014911;28;20137;-30
2022/02/16 10:22:56;;;;;;;3.50;1.10;;;;;;;25.74;27.12;95685.53;5013779;28;20033;-30
2022/02/16 10:25:27;;;;;;;3.97;1.40;;;;;;;25.75;27.08;95703.81;5014413;28;20025;-32
2022/02/16 10:28:06;;;;;;;4.23;1.40;;;;;;;25.76;27.25;95707.25;5012775;28;20494;-31
2022/02/16 10:30:31;;;;;;;5.53;1.40;;;;;;;25.78;27.23;95705.38;5015561;28;20033;-31
2022/02/16 10:33:17;;;;;;;4.45;1.25;;;;;;;25.79;27.21;95694.78;5012317;28;20040;-32
2022/02/16 10:35:44;;;;;;;4.95;1.63;;;;;;;25.82;27.20;95698.97;5013889;28;20033;-33
2022/02/16 10:38:09;;;;;;;4.80;1.55;;;;;;;25.82;27.17;95699.78;5013159;28;20029;-34
2022/02/16 10:40:34;;;;;;;3.35;1.30;;;;;;;25.85;27.07;95687.41;5012444;28;20506;-31
2022/02/16 10:43:00;;;;;;;3.55;1.40;;;;;;;25.86;27.26;95682.06;5013323;28;20040;-33
2022/02/16 10:45:28;;;;;;;4.75;1.20;;;;;;;25.86;27.27;95687.31;5013133;28;20305;-31
2022/02/16 10:48:02;;;;;;;2.97;1.10;;;;;;;25.89;27.27;95681.00;5013668;28;20072;-31
2022/02/16 10:50:33;;;;;;;3.22;1.30;;;;;;;25.89;27.45;95668.69;5003584;28;20048;-31
2022/02/16 10:53:00;;;;;;;2.70;1.10;;;;;;;25.92;27.39;95667.63;5005132;28;20852;-31
2022/02/16 10:55:46;;;;;;;3.55;1.38;;;;;;;25.93;27.39;95648.34;5007104;28;20025;-34
2022/02/16 10:58:13;;;;;;;5.05;1.13;;;;;;;25.94;27.65;95644.75;4990746;28;20983;-30
2022/02/16 11:00:39;;;;;;;2.75;1.00;;;;;;;25.95;27.40;95635.91;5009929;28;20037;-37
2022/02/16 11:03:05;;;;;;;15.85;1.65;;;;;;;25.96;27.39;95648.09;5009955;28;20061;-30
2022/02/16 11:05:32;;;;;;;3.95;1.23;;;;;;;25.97;27.52;95649.75;5011092;28;20033;-33
2022/02/16 11:07:58;;;;;;;5.25;1.30;;;;;;;25.98;27.59;95656.72;5005600;28;20438;-31
2022/02/16 11:10:24;;;;;;;10.25;2.17;;;;;;;25.98;27.69;95664.59;5011416;28;20013;-32
2022/02/16 11:12:49;;;;;;;8.73;2.05;;;;;;;26.00;27.62;95660.03;4996678;28;20037;-32
2022/02/16 11:15:14;;;;;;;14.18;2.08;;;;;;;26.02;27.78;95654.69;4997596;28;20566;-30
2022/02/16 11:17:40;;;;;;;6.75;2.13;;;;;;;26.02;27.84;95637.16;5012659;28;20033;-29
2022/02/16 11:20:25;;;;;;;7.75;2.05;;;;;;;26.04;27.96;95637.88;4992741;28;20034;-30
2022/02/16 11:23:00;;;;;;;8.23;2.50;;;;;;;26.06;27.81;95629.91;5013221;28;20025;-32
2022/02/16 11:25:36;;;;;;;6.82;2.10;;;;;;;26.05;27.90;95629.03;5015627;28;20025;-33
2022/02/16 11:28:03;;;;;;;8.52;2.08;;;;;;;26.07;28.00;95645.53;5013450;28;20419;-31